Terminal Aerodrome Forecast
Issued by NWS

Home | Current Version | Previous Version | Text Only | Print | Product List | Glossary On
Versions: 1 2 3 4 5 6 7 8 9 10 11 12
000
FTAK31 PAFA 310538
TAFABT
TAF
PABT 310538Z 3106/0106 36006KT P6SM BKN060
     FM311500 01008KT P6SM BKN050 OVC100
     FM312100 01012KT P6SM BKN050 OVC100=

USA.gov is the U.S. government's official web portal to all federal, state and local government web resources and services.